Time;durP1;ratioP1;P1;durP2;ratioP2;P2;SDS_P1;SDS_P2;PMS_P1;PMS_P2;Temp;Humidity;BMP_temperature;BMP_pressure;BME280_temperature;BME280_humidity;BME280_pressure;Samples;Min_cycle;Max_cycle;Signal;HPM_P1;HPM_P2
2023/04/22 00:02:18;;;;;;;54.77;10.07;;;16.50;54.30;;;;;;5053315;28;20703;-92
2023/04/22 00:04:46;;;;;;;38.57;8.80;;;16.50;54.40;;;;;;5066526;28;20201;-91
2023/04/22 00:07:13;;;;;;;40.07;9.23;;;16.50;54.40;;;;;;5066390;28;20203;-92
2023/04/22 00:09:40;;;;;;;35.70;9.40;;;16.50;55.00;;;;;;5067974;28;20284;-91
2023/04/22 00:12:10;;;;;;;36.53;8.67;;;16.50;54.40;;;;;;5068236;28;20307;-91
2023/04/22 00:14:37;;;;;;;37.70;8.23;;;16.50;54.40;;;;;;5064063;28;20207;-92
2023/04/22 00:17:05;;;;;;;36.10;7.97;;;16.40;54.30;;;;;;5066576;28;20320;-92
2023/04/22 00:19:33;;;;;;;45.57;9.37;;;16.40;54.30;;;;;;5067702;28;21050;-92
2023/04/22 00:22:00;;;;;;;35.87;9.00;;;16.40;54.30;;;;;;5068368;28;20206;-92
2023/04/22 00:24:27;;;;;;;70.70;11.17;;;16.40;54.40;;;;;;5067677;28;20221;-91
2023/04/22 00:26:54;;;;;;;37.23;8.47;;;16.40;54.40;;;;;;5066935;28;20315;-92
2023/04/22 00:29:22;;;;;;;59.07;10.23;;;16.40;54.40;;;;;;5068166;28;20223;-92
2023/04/22 00:31:50;;;;;;;42.80;9.10;;;16.30;54.40;;;;;;5066182;28;20287;-90
2023/04/22 00:34:18;;;;;;;41.27;8.50;;;16.30;54.40;;;;;;5066309;28;20205;-91
2023/04/22 00:36:45;;;;;;;31.50;8.20;;;16.30;54.40;;;;;;5067440;28;20234;-93
2023/04/22 00:39:12;;;;;;;38.27;8.33;;;16.30;54.40;;;;;;5055877;28;20209;-91
2023/04/22 00:41:40;;;;;;;39.53;8.77;;;16.30;54.40;;;;;;5054197;28;20285;-92
2023/04/22 00:44:09;;;;;;;42.60;8.30;;;16.30;54.40;;;;;;5065164;28;20209;-92
2023/04/22 00:46:38;;;;;;;56.77;9.80;;;16.20;54.30;;;;;;5061794;28;21083;-91
2023/04/22 00:49:05;;;;;;;54.57;9.37;;;16.20;54.30;;;;;;5065744;28;20198;-92
2023/04/22 00:51:32;;;;;;;50.13;9.93;;;16.20;54.30;;;;;;5067236;28;20418;-92
2023/04/22 00:54:00;;;;;;;36.67;8.77;;;16.20;54.30;;;;;;5068203;28;20213;-91
2023/04/22 00:56:29;;;;;;;45.13;8.70;;;16.20;54.30;;;;;;5063863;28;20289;-91
2023/04/22 00:58:56;;;;;;;37.00;8.57;;;16.20;54.40;;;;;;5066695;28;20204;-92
2023/04/22 01:01:24;;;;;;;40.67;9.00;;;16.10;54.30;;;;;;5065542;28;20293;-92
2023/04/22 01:03:53;;;;;;;65.63;10.80;;;16.20;54.40;;;;;;5065976;28;20763;-91
2023/04/22 01:06:20;;;;;;;31.17;7.90;;;16.10;54.30;;;;;;5065365;28;20207;-92
2023/04/22 01:08:47;;;;;;;39.23;9.00;;;16.10;54.30;;;;;;5067474;28;20239;-93
2023/04/22 01:11:14;;;;;;;36.70;8.40;;;16.10;54.40;;;;;;5055223;28;20216;-93
2023/04/22 01:13:42;;;;;;;36.33;8.00;;;16.10;54.40;;;;;;5067338;28;20271;-91
2023/04/22 01:16:10;;;;;;;65.33;10.20;;;16.10;54.40;;;;;;5062379;28;20305;-91
2023/04/22 01:18:37;;;;;;;30.23;8.27;;;16.10;54.40;;;;;;5067200;28;20256;-92
2023/04/22 01:21:06;;;;;;;39.10;8.40;;;16.10;54.40;;;;;;5067232;28;20294;-92
2023/04/22 01:23:35;;;;;;;39.20;8.90;;;16.10;54.40;;;;;;5066744;28;20215;-93
2023/04/22 01:26:02;;;;;;;44.87;9.23;;;16.00;54.30;;;;;;5065285;28;20315;-92
2023/04/22 01:28:30;;;;;;;28.53;8.30;;;16.00;54.30;;;;;;5061379;28;20317;-92
2023/04/22 01:30:57;;;;;;;42.67;9.20;;;16.00;54.30;;;;;;5054686;28;20249;-92
2023/04/22 01:33:24;;;;;;;34.80;8.53;;;16.00;54.30;;;;;;5069120;28;20213;-92
2023/04/22 01:35:51;;;;;;;37.37;8.57;;;16.00;54.40;;;;;;5065467;28;20740;-92
2023/04/22 01:38:18;;;;;;;33.27;8.60;;;15.90;54.80;;;;;;5069248;28;20640;-92
2023/04/22 01:40:47;;;;;;;43.77;8.97;;;15.90;54.30;;;;;;5067464;28;20203;-90
2023/04/22 01:43:13;;;;;;;42.50;8.87;;;15.90;54.30;;;;;;5071601;28;20545;-92
2023/04/22 01:45:40;;;;;;;38.33;8.70;;;15.90;54.30;;;;;;5070641;28;20304;-92
2023/04/22 01:48:08;;;;;;;37.73;8.43;;;15.90;54.30;;;;;;5051132;28;20207;-92
2023/04/22 01:50:35;;;;;;;38.63;8.60;;;15.90;54.30;;;;;;5071444;28;20232;-92
2023/04/22 01:53:02;;;;;;;40.60;9.37;;;15.90;54.30;;;;;;5069592;28;20262;-92
2023/04/22 01:55:30;;;;;;;41.63;9.27;;;15.90;54.40;;;;;;5070014;28;20197;-91
2023/04/22 01:57:58;;;;;;;32.87;8.50;;;15.80;54.40;;;;;;5071186;28;20219;-91
2023/04/22 02:00:25;;;;;;;38.37;8.83;;;15.90;54.40;;;;;;5071263;28;20302;-90
2023/04/22 02:02:52;;;;;;;50.60;9.67;;;15.80;54.90;;;;;;5068420;28;21024;-92
2023/04/22 02:05:19;;;;;;;40.07;9.63;;;15.80;54.30;;;;;;5070397;28;20237;-92
2023/04/22 02:07:46;;;;;;;33.73;8.50;;;15.80;54.40;;;;;;5069125;28;20264;-91
2023/04/22 02:10:13;;;;;;;39.90;8.90;;;15.80;54.40;;;;;;5084521;28;20216;-91
2023/04/22 02:12:40;;;;;;;60.90;11.40;;;15.80;54.40;;;;;;5073253;28;20322;-93
2023/04/22 02:15:10;;;;;;;36.20;9.27;;;15.80;55.00;;;;;;5074609;28;20207;-93
2023/04/22 02:17:38;;;;;;;36.03;9.17;;;15.80;54.40;;;;;;5076595;28;20252;-92
2023/04/22 02:20:06;;;;;;;39.20;9.17;;;15.70;54.30;;;;;;5074698;28;20191;-93
2023/04/22 02:22:33;;;;;;;31.73;8.90;;;15.80;54.40;;;;;;5071584;28;20299;-92
2023/04/22 02:25:00;;;;;;;26.13;8.17;;;15.70;54.30;;;;;;5072849;28;20691;-93
2023/04/22 02:27:27;;;;;;;36.60;8.93;;;15.70;54.30;;;;;;5066692;28;20220;-92
2023/04/22 02:29:54;;;;;;;45.23;10.10;;;15.70;54.30;;;;;;5069467;28;20813;-91
2023/04/22 02:32:23;;;;;;;36.93;8.97;;;15.70;54.30;;;;;;5069815;28;20965;-92
2023/04/22 02:34:50;;;;;;;53.97;10.40;;;15.70;54.30;;;;;;5070022;28;20296;-92
2023/04/22 02:37:17;;;;;;;35.67;9.17;;;15.70;54.30;;;;;;5070869;28;20223;-92
2023/04/22 02:39:44;;;;;;;39.73;10.17;;;15.60;54.30;;;;;;5071322;28;20211;-92
2023/04/22 02:42:12;;;;;;;45.47;9.63;;;15.60;54.30;;;;;;5069226;28;20209;-92
2023/04/22 02:44:40;;;;;;;37.47;9.47;;;15.60;54.30;;;;;;5069738;28;20826;-92
2023/04/22 02:47:07;;;;;;;44.93;9.63;;;15.60;54.90;;;;;;5069202;28;20207;-92
2023/04/22 02:49:36;;;;;;;47.63;10.20;;;15.60;54.30;;;;;;5068765;28;20236;-92
2023/04/22 02:52:02;;;;;;;38.00;8.97;;;15.60;54.30;;;;;;5070360;28;20214;-92
2023/04/22 02:54:29;;;;;;;34.73;8.73;;;15.60;54.30;;;;;;5072017;28;20579;-92
2023/04/22 02:56:58;;;;;;;39.63;9.83;;;15.60;54.30;;;;;;5068155;28;20206;-91
2023/04/22 02:59:25;;;;;;;35.67;9.10;;;15.60;54.30;;;;;;5068745;28;20195;-93
2023/04/22 03:01:52;;;;;;;53.43;10.03;;;15.60;54.30;;;;;;5070239;28;20278;-93
2023/04/22 03:04:20;;;;;;;40.20;9.50;;;15.60;54.30;;;;;;5069503;28;20203;-92
2023/04/22 03:06:49;;;;;;;43.77;9.47;;;15.60;54.30;;;;;;5067948;28;20607;-92
2023/04/22 03:09:17;;;;;;;44.97;10.13;;;15.60;54.30;;;;;;5068951;28;20205;-92
2023/04/22 03:11:44;;;;;;;45.53;9.97;;;15.50;54.20;;;;;;5067427;28;20209;-92
2023/04/22 03:14:11;;;;;;;36.90;9.10;;;15.50;54.20;;;;;;5056440;28;20703;-92
2023/04/22 03:16:38;;;;;;;41.17;9.37;;;15.50;54.20;;;;;;5068578;28;20303;-90
2023/04/22 03:19:05;;;;;;;45.53;9.37;;;15.50;54.20;;;;;;5068654;28;20323;-92
2023/04/22 03:21:32;;;;;;;34.47;9.17;;;15.50;54.20;;;;;;5068682;28;20269;-93
2023/04/22 03:24:01;;;;;;;37.57;9.07;;;15.50;54.20;;;;;;5070343;28;20678;-90
2023/04/22 03:26:28;;;;;;;40.57;9.27;;;15.50;54.30;;;;;;5069080;28;20221;-90
2023/04/22 03:28:55;;;;;;;51.93;10.00;;;15.50;54.30;;;;;;5069193;28;20619;-91
2023/04/22 03:31:23;;;;;;;49.37;10.73;;;15.50;54.30;;;;;;5067078;28;20672;-92
2023/04/22 03:33:50;;;;;;;37.30;9.33;;;15.40;54.20;;;;;;5067761;28;20196;-92
2023/04/22 03:36:17;;;;;;;37.60;9.47;;;15.40;54.20;;;;;;5070700;28;20314;-92
2023/04/22 03:38:44;;;;;;;34.80;9.20;;;15.40;54.20;;;;;;5069147;28;20810;-92
2023/04/22 03:41:13;;;;;;;37.77;9.60;;;15.40;54.20;;;;;;5065181;28;20646;-91
2023/04/22 03:43:40;;;;;;;37.07;9.27;;;15.50;54.30;;;;;;5069349;28;20243;-91
2023/04/22 03:46:07;;;;;;;52.03;11.37;;;15.40;54.20;;;;;;5060733;28;20292;-92
2023/04/22 03:48:35;;;;;;;40.80;10.20;;;15.40;54.20;;;;;;5069257;28;20208;-91
2023/04/22 03:51:02;;;;;;;38.77;9.83;;;15.40;54.20;;;;;;5069628;28;20656;-91
2023/04/22 03:53:29;;;;;;;41.43;9.77;;;15.40;54.30;;;;;;5068976;28;20236;-91
2023/04/22 03:55:56;;;;;;;38.33;9.77;;;15.40;54.30;;;;;;5066648;28;20231;-93
2023/04/22 03:58:24;;;;;;;36.53;9.47;;;15.40;54.30;;;;;;5069304;28;20318;-93
2023/04/22 04:00:51;;;;;;;63.33;12.17;;;15.40;54.30;;;;;;5067541;28;20580;-93
2023/04/22 04:03:18;;;;;;;31.27;9.00;;;15.30;54.20;;;;;;5066871;28;20235;-94
2023/04/22 04:05:45;;;;;;;43.20;10.60;;;15.30;54.30;;;;;;5069750;28;20492;-93
2023/04/22 04:08:12;;;;;;;39.57;10.53;;;15.40;54.40;;;;;;5069646;28;20287;-93
2023/04/22 04:10:40;;;;;;;40.73;10.53;;;15.30;54.30;;;;;;5067267;28;20323;-93
2023/04/22 04:13:07;;;;;;;34.40;10.00;;;15.30;54.30;;;;;;5068660;28;20203;-92
2023/04/22 04:15:36;;;;;;;52.33;11.53;;;15.30;54.30;;;;;;5070052;28;20238;-93
2023/04/22 04:18:04;;;;;;;44.53;11.13;;;15.30;54.30;;;;;;5066633;28;20243;-93
2023/04/22 04:20:31;;;;;;;34.33;10.10;;;15.30;54.30;;;;;;5069067;28;20245;-94
2023/04/22 04:22:58;;;;;;;36.60;10.43;;;15.30;54.30;;;;;;5068230;28;20236;-93
2023/04/22 04:25:25;;;;;;;38.50;10.60;;;15.30;54.40;;;;;;5056262;28;20314;-94
2023/04/22 04:27:52;;;;;;;35.20;10.07;;;15.30;54.30;;;;;;5050237;28;20299;-93
2023/04/22 04:30:20;;;;;;;53.70;11.97;;;15.30;54.40;;;;;;5061370;28;20289;-93
2023/04/22 04:32:48;;;;;;;46.87;11.60;;;15.30;54.40;;;;;;5066226;28;20277;-91
2023/04/22 04:35:17;;;;;;;38.87;11.23;;;15.20;54.30;;;;;;5048867;28;20197;-92
2023/04/22 04:37:45;;;;;;;50.37;11.30;;;15.20;54.30;;;;;;5061200;28;20215;-92
2023/04/22 04:40:12;;;;;;;40.60;10.77;;;15.30;54.40;;;;;;5068565;28;20208;-90
2023/04/22 04:42:39;;;;;;;48.40;12.43;;;15.20;54.30;;;;;;5065926;28;20208;-90
2023/04/22 04:45:08;;;;;;;37.23;10.43;;;15.30;54.40;;;;;;5066820;28;20580;-90
2023/04/22 04:47:35;;;;;;;53.80;12.47;;;15.20;54.30;;;;;;5063102;28;20219;-93
2023/04/22 04:50:04;;;;;;;41.37;11.43;;;15.20;54.30;;;;;;5066749;28;20304;-91
2023/04/22 04:52:31;;;;;;;54.63;12.37;;;15.20;54.30;;;;;;5064694;28;20724;-92
2023/04/22 04:54:58;;;;;;;66.97;14.03;;;15.20;54.40;;;;;;5065988;28;20210;-93
2023/04/22 04:57:25;;;;;;;38.17;11.40;;;15.20;54.40;;;;;;5065047;28;20294;-93
2023/04/22 04:59:52;;;;;;;66.37;13.03;;;15.20;54.30;;;;;;5065805;28;20348;-93
2023/04/22 05:02:22;;;;;;;31.60;10.90;;;15.20;54.30;;;;;;5073440;28;20753;-95
2023/04/22 05:04:50;;;;;;;42.63;11.53;;;15.20;54.30;;;;;;5078827;28;20253;-95
2023/04/22 05:07:20;;;;;;;36.27;11.63;;;15.20;54.30;;;;;;5080158;28;20231;-96
2023/04/22 05:09:47;;;;;;;45.60;11.83;;;15.20;54.30;;;;;;5070669;28;20195;-96
2023/04/22 05:12:14;;;;;;;45.63;12.70;;;15.20;54.30;;;;;;5068548;28;20234;-95
2023/04/22 05:14:41;;;;;;;35.37;11.13;;;15.10;54.20;;;;;;5072195;28;20196;-95
2023/04/22 05:17:09;;;;;;;56.47;12.87;;;15.10;54.30;;;;;;5067608;28;20207;-96
2023/04/22 05:19:36;;;;;;;39.60;11.87;;;15.20;54.40;;;;;;5069689;28;20230;-96
2023/04/22 05:22:03;;;;;;;38.87;11.30;;;15.20;54.40;;;;;;5069402;28;20614;-96
2023/04/22 05:24:32;;;;;;;52.60;12.40;;;15.20;54.40;;;;;;5066619;28;20204;-95
2023/04/22 05:26:59;;;;;;;53.90;13.30;;;15.10;54.30;;;;;;5067130;28;20302;-96
2023/04/22 05:29:27;;;;;;;49.60;12.20;;;15.20;54.40;;;;;;5066526;28;20299;-96
2023/04/22 05:31:54;;;;;;;73.20;13.77;;;15.10;54.40;;;;;;5066027;28;20230;-96
2023/04/22 05:34:21;;;;;;;37.63;11.97;;;15.10;54.30;;;;;;5066906;28;20199;-96
2023/04/22 05:36:48;;;;;;;73.27;13.83;;;15.10;54.30;;;;;;5067062;28;20212;-96
2023/04/22 05:39:15;;;;;;;53.63;13.60;;;15.10;54.40;;;;;;5064166;28;20238;-96
2023/04/22 05:41:45;;;;;;;46.77;12.27;;;15.10;54.40;;;;;;5086511;28;20220;-95
2023/04/22 05:44:12;;;;;;;49.17;12.40;;;15.20;54.50;;;;;;5087649;28;20196;-94
2023/04/22 05:46:39;;;;;;;36.60;11.33;;;15.10;54.40;;;;;;5085254;28;20206;-96
2023/04/22 05:49:06;;;;;;;41.47;11.90;;;15.10;54.40;;;;;;5079362;28;20765;-96
2023/04/22 05:51:34;;;;;;;38.87;12.07;;;15.10;54.40;;;;;;5073592;28;20227;-96
2023/04/22 05:54:16;;;;;;;31.03;10.77;;;15.10;54.40;;;;;;5062859;28;20675;-96
2023/04/22 05:56:44;;;;;;;37.30;11.03;;;15.10;54.40;;;;;;5069468;28;20210;-96
2023/04/22 05:59:12;;;;;;;36.57;10.83;;;15.10;54.40;;;;;;5069018;28;20285;-96
2023/04/22 06:01:39;;;;;;;34.87;11.10;;;15.10;54.40;;;;;;5068525;28;20207;-96
2023/04/22 06:04:08;;;;;;;52.83;12.07;;;15.10;54.40;;;;;;5067402;28;20242;-94
2023/04/22 06:06:35;;;;;;;48.70;12.67;;;15.10;54.40;;;;;;5066155;28;20201;-95
2023/04/22 06:09:02;;;;;;;49.27;12.30;;;15.10;54.40;;;;;;5068276;28;20219;-95
2023/04/22 06:11:31;;;;;;;68.97;13.33;;;15.10;54.40;;;;;;5067208;28;20215;-94
2023/04/22 06:14:00;;;;;;;77.93;13.57;;;15.10;54.50;;;;;;5066161;28;20583;-95
2023/04/22 06:16:28;;;;;;;40.63;11.40;;;15.10;54.40;;;;;;5067202;28;20339;-94
2023/04/22 06:18:55;;;;;;;44.83;12.00;;;15.10;54.50;;;;;;5072332;28;20238;-96
2023/04/22 06:21:22;;;;;;;42.27;10.63;;;15.10;54.50;;;;;;5069500;28;20253;-95
2023/04/22 06:23:49;;;;;;;36.83;10.77;;;15.10;54.50;;;;;;5052223;28;20200;-94
2023/04/22 06:26:21;;;;;;;39.40;10.23;;;15.10;54.50;;;;;;5070405;28;20318;-95
2023/04/22 06:28:48;;;;;;;37.50;10.87;;;15.10;54.50;;;;;;5070845;28;20564;-95
2023/04/22 06:31:17;;;;;;;49.97;11.57;;;15.10;54.50;;;;;;5069831;28;20348;-96
2023/04/22 06:33:44;;;;;;;42.30;11.33;;;15.10;54.50;;;;;;5065727;28;20294;-95
2023/04/22 06:36:11;;;;;;;40.30;10.87;;;15.10;54.50;;;;;;5058434;28;20296;-96
2023/04/22 06:38:38;;;;;;;53.40;11.80;;;15.10;54.50;;;;;;5069389;28;20242;-95
2023/04/22 06:41:05;;;;;;;41.80;11.37;;;15.10;54.50;;;;;;5053351;28;20303;-94
2023/04/22 06:43:32;;;;;;;37.47;10.57;;;15.10;54.50;;;;;;5070471;28;20539;-95
2023/04/22 06:46:02;;;;;;;58.33;12.47;;;15.10;54.50;;;;;;5067863;28;20207;-95
2023/04/22 06:48:31;;;;;;;40.17;11.10;;;15.10;54.50;;;;;;5065671;28;20565;-93
2023/04/22 06:51:00;;;;;;;40.00;10.57;;;15.10;54.50;;;;;;5058690;28;20230;-95
2023/04/22 06:53:27;;;;;;;39.20;10.53;;;15.10;54.50;;;;;;5070021;28;20217;-95
2023/04/22 06:55:54;;;;;;;79.97;13.87;;;15.00;54.50;;;;;;5068815;28;20236;-94
2023/04/22 06:58:22;;;;;;;53.73;11.67;;;15.10;54.60;;;;;;5068790;28;20215;-94
2023/04/22 07:00:50;;;;;;;41.40;10.60;;;15.10;54.60;;;;;;5069325;28;20296;-93
2023/04/22 07:03:16;;;;;;;42.80;11.23;;;15.10;54.60;;;;;;5067469;28;20308;-93
2023/04/22 07:05:47;;;;;;;46.17;11.00;;;15.10;54.60;;;;;;5071554;28;20285;-95
2023/04/22 07:08:14;;;;;;;41.17;11.33;;;15.10;54.60;;;;;;5068279;28;20227;-92
2023/04/22 07:10:47;;;;;;;42.37;10.77;;;15.10;54.60;;;;;;5068981;28;20298;-93
2023/04/22 07:13:13;;;;;;;55.67;12.10;;;15.10;54.60;;;;;;5068717;28;20295;-93
2023/04/22 07:15:41;;;;;;;38.67;10.60;;;15.10;54.60;;;;;;5067823;28;20295;-94
2023/04/22 07:18:08;;;;;;;42.93;10.30;;;15.10;54.60;;;;;;5068589;28;20207;-93
2023/04/22 07:20:35;;;;;;;41.43;10.77;;;15.10;54.60;;;;;;5060137;28;21104;-93
2023/04/22 07:23:03;;;;;;;46.10;10.77;;;15.10;54.60;;;;;;5071251;28;20274;-94
2023/04/22 07:25:30;;;;;;;38.30;9.63;;;15.10;54.60;;;;;;5070755;28;20310;-93
2023/04/22 07:27:57;;;;;;;39.43;10.33;;;15.10;54.60;;;;;;5070303;28;20582;-93
2023/04/22 07:30:24;;;;;;;43.00;10.17;;;15.10;54.60;;;;;;5067110;28;20258;-94
2023/04/22 07:32:54;;;;;;;41.03;10.73;;;15.10;54.60;;;;;;5069732;28;20235;-92
2023/04/22 07:35:21;;;;;;;34.77;10.23;;;15.10;54.60;;;;;;5070673;28;20257;-92
2023/04/22 07:37:50;;;;;;;35.93;9.77;;;15.10;54.60;;;;;;5068467;28;20203;-93
2023/04/22 07:40:20;;;;;;;38.03;10.23;;;15.20;54.60;;;;;;5069982;28;20754;-94
2023/04/22 07:42:47;;;;;;;57.77;12.03;;;15.10;54.60;;;;;;5068388;28;20223;-94
2023/04/22 07:45:15;;;;;;;51.57;11.73;;;15.20;54.70;;;;;;5069620;28;20295;-95
2023/04/22 07:47:42;;;;;;;47.70;10.43;;;15.10;54.60;;;;;;5067255;28;20299;-92
2023/04/22 07:50:10;;;;;;;44.03;10.60;;;15.20;54.70;;;;;;5063648;28;20204;-95
2023/04/22 07:52:37;;;;;;;48.90;11.37;;;15.20;54.70;;;;;;5068551;28;20208;-92
2023/04/22 07:55:05;;;;;;;38.73;10.37;;;15.20;54.70;;;;;;5067852;28;20290;-94
2023/04/22 07:57:37;;;;;;;43.00;10.07;;;15.20;54.70;;;;;;5067209;28;20651;-94
2023/04/22 08:00:05;;;;;;;40.03;10.20;;;15.20;54.70;;;;;;5068907;28;20223;-93
2023/04/22 08:02:32;;;;;;;54.43;11.90;;;15.20;54.70;;;;;;5069108;28;20306;-93
2023/04/22 08:04:59;;;;;;;38.87;10.53;;;15.20;54.70;;;;;;5068994;28;20283;-94
2023/04/22 08:07:26;;;;;;;49.20;10.90;;;15.20;54.70;;;;;;5067864;28;20291;-94
2023/04/22 08:09:55;;;;;;;37.70;10.70;;;15.20;54.70;;;;;;5065029;28;20298;-95
2023/04/22 08:12:23;;;;;;;44.47;10.63;;;15.30;54.70;;;;;;5068723;28;20199;-95
2023/04/22 08:14:53;;;;;;;36.93;10.17;;;15.30;54.80;;;;;;5068626;28;20205;-95
2023/04/22 08:17:20;;;;;;;39.83;10.67;;;15.30;54.70;;;;;;5068164;28;20196;-95
2023/04/22 08:19:48;;;;;;;43.80;10.30;;;15.30;54.70;;;;;;5069660;28;20240;-94
2023/04/22 08:22:16;;;;;;;38.60;10.47;;;15.30;54.80;;;;;;5068708;28;20201;-93
2023/04/22 08:24:43;;;;;;;44.93;11.03;;;15.30;54.80;;;;;;5069441;28;20658;-94
2023/04/22 08:27:10;;;;;;;38.80;10.53;;;15.40;54.80;;;;;;5066832;28;20326;-95
2023/04/22 08:29:37;;;;;;;36.53;10.03;;;15.30;54.70;;;;;;5049579;28;20287;-93
2023/04/22 08:32:06;;;;;;;38.87;11.10;;;15.30;54.70;;;;;;5061115;28;20250;-93
2023/04/22 08:34:36;;;;;;;38.07;10.57;;;15.30;54.70;;;;;;5069741;28;20209;-93
2023/04/22 08:37:03;;;;;;;37.77;11.13;;;15.40;54.80;;;;;;5069988;28;20228;-94
2023/04/22 08:39:30;;;;;;;35.83;10.50;;;15.30;54.70;;;;;;5069158;28;20224;-93
2023/04/22 08:41:58;;;;;;;35.63;11.03;;;15.40;54.80;;;;;;5069501;28;20296;-94
2023/04/22 08:44:26;;;;;;;35.13;10.23;;;15.40;54.80;;;;;;5067814;28;20209;-94
2023/04/22 08:46:54;;;;;;;59.97;12.97;;;15.40;54.80;;;;;;5066675;28;20195;-93
2023/04/22 08:49:24;;;;;;;47.23;11.50;;;15.40;54.90;;;;;;5064983;28;20219;-92
2023/04/22 08:51:51;;;;;;;56.23;12.40;;;15.40;54.80;;;;;;5056865;28;20215;-92
2023/04/22 08:54:18;;;;;;;50.47;12.40;;;15.40;54.80;;;;;;5065341;28;20648;-91
2023/04/22 08:56:46;;;;;;;45.47;11.47;;;15.40;54.80;;;;;;5066332;28;20701;-91
2023/04/22 08:59:13;;;;;;;40.33;11.23;;;15.40;54.90;;;;;;5054372;28;20311;-93
2023/04/22 09:01:41;;;;;;;48.70;11.87;;;15.40;54.80;;;;;;5066313;28;20299;-93
2023/04/22 09:04:10;;;;;;;41.33;10.73;;;15.40;54.80;;;;;;5066102;28;20199;-93
2023/04/22 09:06:39;;;;;;;41.43;11.33;;;15.40;54.80;;;;;;5068464;28;20261;-94
2023/04/22 09:09:07;;;;;;;36.17;10.53;;;15.50;55.00;;;;;;5066140;28;21006;-93
2023/04/22 09:11:35;;;;;;;38.60;11.03;;;15.50;54.90;;;;;;5064632;28;20240;-93
2023/04/22 09:14:04;;;;;;;38.70;11.63;;;15.50;54.90;;;;;;5085171;28;20184;-93
2023/04/22 09:16:32;;;;;;;31.60;10.27;;;15.50;54.90;;;;;;5093246;28;20280;-92
2023/04/22 09:18:59;;;;;;;40.03;11.10;;;15.50;55.50;;;;;;5083259;28;20196;-93
2023/04/22 09:21:27;;;;;;;58.13;12.90;;;15.50;54.90;;;;;;5083160;28;20513;-93
2023/04/22 09:24:01;;;;;;;38.73;11.30;;;15.50;55.50;;;;;;5050975;28;20241;-94
2023/04/22 09:26:28;;;;;;;33.93;11.17;;;15.50;55.00;;;;;;5068005;28;20220;-92
2023/04/22 09:28:59;;;;;;;33.77;10.77;;;15.60;55.00;;;;;;5056699;28;20727;-93
2023/04/22 09:31:27;;;;;;;31.23;10.30;;;15.50;55.00;;;;;;5051293;28;20217;-94
2023/04/22 09:33:56;;;;;;;33.83;10.43;;;15.50;54.90;;;;;;5068402;28;20197;-94
2023/04/22 09:36:26;;;;;;;31.33;11.53;;;15.60;55.00;;;;;;5069408;28;20207;-96
2023/04/22 09:38:57;;;;;;;67.73;15.80;;;15.60;55.00;;;;;;5072897;28;20199;-90
2023/04/22 09:41:29;;;;;;;74.80;19.37;;;15.60;55.00;;;;;;5064401;28;20683;-90
2023/04/22 09:43:57;;;;;;;46.10;18.63;;;15.60;55.50;;;;;;5067351;28;20221;-89
2023/04/22 09:46:27;;;;;;;35.73;17.20;;;15.60;56.00;;;;;;5068910;28;20233;-89
2023/04/22 09:48:55;;;;;;;50.90;19.00;;;15.60;56.40;;;;;;5069893;28;20618;-90
2023/04/22 09:51:23;;;;;;;59.37;19.53;;;15.60;56.50;;;;;;5048678;28;20196;-89
2023/04/22 09:54:11;;;;;;;39.80;17.93;;;15.60;56.70;;;;;;5072588;28;20264;-89
2023/04/22 09:56:47;;;;;;;47.97;19.37;;;15.60;57.10;;;;;;5073886;28;20204;-92
2023/04/22 09:59:14;;;;;;;51.57;20.20;;;15.60;57.10;;;;;;5073090;28;20197;-89
2023/04/22 10:01:42;;;;;;;39.57;18.20;;;15.60;57.10;;;;;;5072987;28;20210;-88
2023/04/22 10:04:10;;;;;;;82.53;21.00;;;15.60;57.30;;;;;;5067718;28;20260;-87
2023/04/22 10:06:38;;;;;;;33.93;17.27;;;15.60;57.30;;;;;;5076661;28;20197;-96
2023/04/22 10:09:11;;;;;;;46.40;17.63;;;15.60;57.20;;;;;;5082752;28;20197;-96
2023/04/22 10:12:00;;;;;;;37.00;17.17;;;15.70;57.20;;;;;;5080366;28;20228;-96
2023/04/22 10:14:28;;;;;;;32.83;16.23;;;15.70;57.10;;;;;;5077424;28;20203;-96
2023/04/22 10:17:01;;;;;;;55.47;18.20;;;15.70;56.70;;;;;;5084388;28;20204;-96
2023/04/22 10:19:28;;;;;;;55.97;17.37;;;15.70;56.60;;;;;;5069250;28;20196;-94
2023/04/22 10:21:57;;;;;;;45.63;16.27;;;15.80;56.60;;;;;;5068699;28;20238;-96
2023/04/22 10:24:27;;;;;;;44.47;15.93;;;15.70;57.10;;;;;;5061763;28;20300;-91
2023/04/22 10:26:57;;;;;;;52.83;16.40;;;15.70;56.60;;;;;;5069545;28;20234;-91
2023/04/22 10:29:35;;;;;;;36.67;15.20;;;15.70;56.50;;;;;;5069118;28;20292;-91
2023/04/22 10:32:05;;;;;;;38.37;15.60;;;15.80;56.40;;;;;;5069400;28;20208;-92
2023/04/22 10:34:38;;;;;;;34.30;15.37;;;15.80;56.40;;;;;;5071173;28;20221;-91
2023/04/22 10:37:07;;;;;;;50.83;15.97;;;15.80;56.40;;;;;;5067497;28;20212;-90
2023/04/22 10:39:35;;;;;;;36.10;13.97;;;15.80;56.30;;;;;;5051053;28;20236;-92
2023/04/22 10:42:10;;;;;;;32.33;14.33;;;15.80;56.20;;;;;;5064208;28;20215;-91
2023/04/22 10:44:49;;;;;;;35.33;14.47;;;15.80;56.20;;;;;;5065465;28;20203;-91
2023/04/22 10:47:29;;;;;;;30.20;13.63;;;15.80;56.20;;;;;;5067106;28;20255;-91
2023/04/22 10:50:18;;;;;;;41.60;16.60;;;15.80;56.20;;;;;;5063390;28;20217;-96
2023/04/22 10:52:49;;;;;;;51.90;16.13;;;15.90;56.30;;;;;;5067537;28;20261;-94
2023/04/22 10:55:18;;;;;;;32.97;15.23;;;15.90;56.30;;;;;;5070384;28;20205;-95
2023/04/22 10:57:51;;;;;;;31.17;13.60;;;15.90;56.20;;;;;;5070347;28;20221;-95
2023/04/22 11:00:21;;;;;;;37.03;14.27;;;15.80;56.10;;;;;;5070443;28;20312;-96
2023/04/22 11:02:53;;;;;;;31.30;13.20;;;15.90;56.20;;;;;;5053762;28;20529;-95
2023/04/22 11:05:22;;;;;;;32.50;13.60;;;15.90;56.20;;;;;;5050612;28;20240;-94
2023/04/22 11:07:50;;;;;;;30.93;12.53;;;15.90;56.10;;;;;;5067870;28;20210;-96
2023/04/22 11:10:42;;;;;;;27.13;13.10;;;15.90;56.10;;;;;;5070663;28;20655;-95
2023/04/22 11:13:12;;;;;;;46.07;14.20;;;15.90;56.10;;;;;;5069281;28;20246;-95
2023/04/22 11:15:41;;;;;;;34.20;12.97;;;15.90;56.00;;;;;;5071552;28;20209;-94
2023/04/22 11:18:10;;;;;;;33.23;12.63;;;15.90;56.00;;;;;;5066764;28;20204;-94
2023/04/22 11:20:39;;;;;;;31.60;13.13;;;15.90;56.00;;;;;;5063095;28;20233;-94
2023/04/22 11:23:07;;;;;;;30.43;12.30;;;15.90;56.00;;;;;;5070543;28;20239;-94
2023/04/22 11:25:34;;;;;;;58.67;14.57;;;16.00;56.00;;;;;;5068626;28;20282;-95
2023/04/22 11:28:01;;;;;;;30.83;11.73;;;15.90;56.00;;;;;;5069564;28;20277;-94
2023/04/22 11:30:30;;;;;;;29.20;12.10;;;16.00;56.00;;;;;;5070475;28;20304;-94
2023/04/22 11:32:59;;;;;;;24.57;11.10;;;16.00;56.00;;;;;;5069026;28;20994;-94
2023/04/22 11:35:28;;;;;;;31.17;13.23;;;16.00;56.00;;;;;;5071081;28;20673;-93
2023/04/22 11:37:57;;;;;;;31.27;11.77;;;16.00;56.00;;;;;;5068038;28;20292;-92
2023/04/22 11:40:26;;;;;;;33.83;11.97;;;16.00;56.00;;;;;;5063578;28;20228;-93
2023/04/22 11:42:54;;;;;;;43.10;12.90;;;16.00;56.00;;;;;;5068447;28;20206;-93
2023/04/22 11:45:21;;;;;;;31.27;11.60;;;16.00;56.00;;;;;;5070784;28;20833;-93
2023/04/22 11:47:50;;;;;;;31.90;11.87;;;16.00;56.00;;;;;;5068077;28;20191;-94
2023/04/22 11:50:22;;;;;;;24.53;11.43;;;16.00;56.00;;;;;;5069244;28;20333;-93
2023/04/22 11:52:51;;;;;;;32.97;12.50;;;16.00;56.00;;;;;;5070330;28;20288;-94
2023/04/22 11:55:23;;;;;;;30.27;11.30;;;16.00;56.00;;;;;;5063849;28;20255;-92
2023/04/22 11:57:56;;;;;;;38.73;11.70;;;16.00;56.00;;;;;;5057487;28;20209;-94
2023/04/22 12:00:24;;;;;;;38.10;12.47;;;16.00;56.00;;;;;;5069455;28;20227;-93
2023/04/22 12:03:00;;;;;;;34.67;11.40;;;16.00;56.00;;;;;;5069303;28;20310;-94
2023/04/22 12:05:39;;;;;;;30.23;11.17;;;16.00;56.00;;;;;;5069269;28;20298;-93
2023/04/22 12:08:11;;;;;;;32.73;11.67;;;16.10;56.10;;;;;;5070295;28;20640;-93
2023/04/22 12:10:42;;;;;;;43.77;12.50;;;16.10;56.10;;;;;;5068347;28;20226;-92
2023/04/22 12:13:10;;;;;;;30.47;11.17;;;16.10;56.10;;;;;;5064870;28;20292;-92
2023/04/22 12:15:41;;;;;;;34.67;12.20;;;16.10;56.10;;;;;;5064211;28;20240;-92
2023/04/22 12:18:11;;;;;;;24.23;9.60;;;16.10;56.10;;;;;;5069750;28;20297;-93
2023/04/22 12:20:39;;;;;;;31.70;11.77;;;16.10;56.10;;;;;;5059857;28;20223;-93
2023/04/22 12:23:13;;;;;;;31.30;10.83;;;16.10;56.10;;;;;;5050376;28;20648;-92
2023/04/22 12:25:40;;;;;;;30.20;10.17;;;16.10;56.10;;;;;;5056178;28;20651;-91
2023/04/22 12:28:07;;;;;;;24.37;10.97;;;16.10;56.10;;;;;;5070020;28;20240;-93
2023/04/22 12:30:34;;;;;;;30.17;10.43;;;16.10;56.10;;;;;;5069157;28;20215;-92
2023/04/22 12:33:01;;;;;;;24.50;10.57;;;16.10;56.10;;;;;;5063718;28;20310;-93
2023/04/22 12:35:30;;;;;;;25.10;10.63;;;16.10;56.10;;;;;;5069215;28;20984;-91
2023/04/22 12:37:57;;;;;;;30.40;9.97;;;16.20;56.20;;;;;;5069189;28;20201;-92